createdAt,value
2022-10-05T00:01:40.062Z,2.57
2022-10-05T00:04:28.892Z,2.87
2022-10-05T00:07:20.042Z,2.30
2022-10-05T00:10:14.262Z,2.27
2022-10-05T00:12:59.108Z,2.10
2022-10-05T00:15:44.202Z,2.60
2022-10-05T00:18:29.458Z,2.13
2022-10-05T00:21:23.670Z,2.30
2022-10-05T00:24:10.491Z,2.40
2022-10-05T00:26:57.969Z,2.47
2022-10-05T00:29:43.470Z,2.67
2022-10-05T00:32:28.434Z,2.40
2022-10-05T00:35:15.831Z,2.07
2022-10-05T00:38:01.089Z,2.27
2022-10-05T00:41:04.871Z,2.20
2022-10-05T00:43:52.817Z,1.93
2022-10-05T00:46:49.189Z,2.20
2022-10-05T00:49:52.817Z,2.17
2022-10-05T00:52:52.229Z,1.93
2022-10-05T00:55:49.802Z,1.97
2022-10-05T00:58:44.083Z,1.97
2022-10-05T01:01:50.807Z,1.97
2022-10-05T01:04:38.810Z,2.20
2022-10-05T01:07:43.020Z,1.63
2022-10-05T01:10:37.219Z,2.10
2022-10-05T01:13:47.813Z,1.83
2022-10-05T01:16:42.854Z,1.80
2022-10-05T01:19:56.166Z,1.83
2022-10-05T01:22:51.622Z,2.13
2022-10-05T01:26:15.970Z,2.00
2022-10-05T01:29:15.191Z,1.80
2022-10-05T01:32:20.730Z,1.80
2022-10-05T01:35:24.758Z,2.10
2022-10-05T01:38:46.298Z,1.47
2022-10-05T01:41:45.627Z,1.70
2022-10-05T01:44:38.527Z,1.80
2022-10-05T01:47:29.748Z,1.80
2022-10-05T01:50:52.159Z,1.87
2022-10-05T01:54:16.082Z,1.80
2022-10-05T01:57:36.295Z,1.70
2022-10-05T02:00:21.315Z,1.47
2022-10-05T02:03:14.019Z,1.83
2022-10-05T02:06:06.233Z,1.50
2022-10-05T02:09:26.472Z,1.67
2022-10-05T02:12:16.122Z,1.27
2022-10-05T02:15:11.564Z,1.40
2022-10-05T02:18:03.389Z,1.60
2022-10-05T02:20:52.238Z,1.73
2022-10-05T02:23:40.793Z,1.23
2022-10-05T02:26:27.193Z,1.93
2022-10-05T02:29:17.145Z,1.70
2022-10-05T02:32:33.351Z,1.47
2022-10-05T02:35:21.410Z,1.60
2022-10-05T02:38:09.466Z,1.70
2022-10-05T02:41:10.888Z,1.80
2022-10-05T02:44:02.679Z,1.70
2022-10-05T02:46:57.228Z,1.33
2022-10-05T02:49:53.069Z,1.40
2022-10-05T02:53:04.387Z,1.60
2022-10-05T02:55:55.272Z,1.33
2022-10-05T02:59:11.058Z,1.97
2022-10-05T03:02:04.643Z,1.50
2022-10-05T03:04:57.951Z,1.47
2022-10-05T03:08:04.234Z,1.60
2022-10-05T03:11:14.137Z,1.60
2022-10-05T03:13:59.497Z,1.40
2022-10-05T03:16:54.837Z,1.40
2022-10-05T03:20:03.311Z,1.50
2022-10-05T03:23:01.628Z,1.67
2022-10-05T03:26:12.645Z,1.23
2022-10-05T03:29:01.159Z,1.73
2022-10-05T03:32:12.617Z,1.50
2022-10-05T03:35:33.409Z,1.60
2022-10-05T03:39:02.825Z,1.47
2022-10-05T03:41:54.882Z,1.60
2022-10-05T03:44:49.130Z,1.20
2022-10-05T03:47:45.183Z,1.63
2022-10-05T03:50:53.288Z,1.50
2022-10-05T03:53:44.634Z,1.33
2022-10-05T03:56:40.032Z,1.37
2022-10-05T03:59:32.585Z,1.50
2022-10-05T04:02:45.921Z,1.43
2022-10-05T04:05:42.479Z,1.30
2022-10-05T04:08:47.657Z,1.43
2022-10-05T04:11:50.074Z,1.40
2022-10-05T04:14:46.686Z,1.40
2022-10-05T04:17:38.026Z,1.40
2022-10-05T04:20:37.091Z,1.23
2022-10-05T04:23:25.333Z,1.60
2022-10-05T04:26:16.451Z,1.37
2022-10-05T04:29:19.294Z,1.67
2022-10-05T04:32:30.253Z,1.30
2022-10-05T04:35:40.474Z,1.50
2022-10-05T04:38:37.229Z,1.33
2022-10-05T04:41:45.362Z,1.43
2022-10-05T04:45:04.467Z,1.37
2022-10-05T04:48:17.693Z,1.30
2022-10-05T04:51:24.341Z,1.30
2022-10-05T04:54:15.358Z,1.30
2022-10-05T04:57:10.861Z,1.07
2022-10-05T05:00:21.306Z,1.30
2022-10-05T05:03:44.386Z,1.43
2022-10-05T05:06:49.447Z,1.30
2022-10-05T05:10:02.610Z,1.40
2022-10-05T05:13:11.296Z,1.23
2022-10-05T05:16:16.112Z,1.30
2022-10-05T05:19:08.430Z,1.17
2022-10-05T05:22:02.806Z,1.10
2022-10-05T05:25:42.275Z,1.30
2022-10-05T05:29:10.019Z,1.30
2022-10-05T05:32:06.234Z,1.33
2022-10-05T05:35:18.373Z,1.30
2022-10-05T05:38:38.071Z,1.27
2022-10-05T05:41:35.633Z,1.63
2022-10-05T05:44:27.374Z,1.30
2022-10-05T05:47:21.465Z,1.50
2022-10-05T05:50:49.474Z,1.23
2022-10-05T05:53:44.266Z,1.17
2022-10-05T05:56:39.473Z,1.30
2022-10-05T05:59:36.789Z,1.40
2022-10-05T06:02:34.303Z,1.40
2022-10-05T06:05:38.148Z,1.27
2022-10-05T06:08:35.177Z,1.30
2022-10-05T06:11:44.615Z,1.17
2022-10-05T06:14:45.915Z,1.33
2022-10-05T06:17:43.922Z,1.30
2022-10-05T06:20:33.048Z,1.13
2022-10-05T06:23:25.355Z,1.37
2022-10-05T06:26:32.163Z,1.17
2022-10-05T06:29:23.611Z,1.37
2022-10-05T06:32:30.397Z,1.30
2022-10-05T06:35:21.994Z,1.20
2022-10-05T06:38:32.607Z,1.47
2022-10-05T06:41:35.494Z,1.30
2022-10-05T06:44:30.222Z,1.33
2022-10-05T06:48:02.842Z,1.17
2022-10-05T06:51:25.955Z,1.57
2022-10-05T06:54:46.347Z,1.63
2022-10-05T06:57:59.299Z,1.50
2022-10-05T07:01:03.093Z,1.30
2022-10-05T07:04:04.364Z,1.50
2022-10-05T07:06:56.743Z,1.13
2022-10-05T07:10:17.010Z,1.40
2022-10-05T07:13:40.402Z,1.37
2022-10-05T07:16:34.970Z,1.50
2022-10-05T07:19:52.379Z,1.33
2022-10-05T07:22:55.521Z,1.30
2022-10-05T07:25:50.094Z,1.33
2022-10-05T07:28:47.130Z,1.40
2022-10-05T07:31:42.131Z,1.40
2022-10-05T07:34:39.728Z,1.00
2022-10-05T07:37:50.237Z,1.53
2022-10-05T07:40:44.908Z,1.63
2022-10-05T07:44:12.516Z,1.40
2022-10-05T07:47:06.000Z,1.40
2022-10-05T07:50:02.473Z,1.40
2022-10-05T07:53:35.906Z,1.50
2022-10-05T07:56:40.075Z,1.30
2022-10-05T07:59:34.086Z,1.50
2022-10-05T08:02:29.777Z,1.20
2022-10-05T08:05:24.947Z,1.30
2022-10-05T08:08:31.893Z,1.57
2022-10-05T08:11:22.154Z,1.53
2022-10-05T08:14:27.601Z,1.40
2022-10-05T08:17:26.519Z,1.30
2022-10-05T08:20:47.049Z,1.30
2022-10-05T08:23:54.742Z,1.50
2022-10-05T08:27:02.939Z,1.77
2022-10-05T08:30:03.729Z,1.47
2022-10-05T08:32:56.003Z,1.50
2022-10-05T08:35:44.711Z,1.60
2022-10-05T08:38:33.123Z,1.20
2022-10-05T08:41:45.111Z,1.77
2022-10-05T08:44:49.909Z,1.33
2022-10-05T08:47:59.942Z,1.53
2022-10-05T08:51:28.492Z,1.50
2022-10-05T08:54:23.569Z,1.40
2022-10-05T08:57:41.309Z,1.50
2022-10-05T09:00:55.383Z,1.60
2022-10-05T09:03:51.898Z,1.70
2022-10-05T09:07:04.300Z,1.30
2022-10-05T09:10:26.915Z,1.57
2022-10-05T09:13:33.496Z,1.60
2022-10-05T09:16:40.120Z,1.80
2022-10-05T09:19:40.700Z,1.30
2022-10-05T09:22:59.533Z,1.30
2022-10-05T09:26:13.491Z,1.23
2022-10-05T09:29:36.698Z,1.43
2022-10-05T09:32:47.703Z,1.50
2022-10-05T09:36:05.393Z,1.80
2022-10-05T09:39:01.189Z,1.73
2022-10-05T09:42:15.298Z,1.47
2022-10-05T09:45:41.179Z,1.60
2022-10-05T09:48:29.163Z,1.40
2022-10-05T09:51:39.466Z,1.60
2022-10-05T09:54:48.854Z,1.60
2022-10-05T09:57:52.405Z,1.33
2022-10-05T10:00:38.366Z,1.80
2022-10-05T10:03:32.409Z,1.57
2022-10-05T10:06:36.230Z,1.60
2022-10-05T10:09:38.509Z,1.43
2022-10-05T10:12:42.039Z,1.50
2022-10-05T10:15:59.435Z,1.63
2022-10-05T10:18:53.900Z,1.60
2022-10-05T10:22:16.292Z,1.40
2022-10-05T10:25:07.527Z,1.40
2022-10-05T10:28:35.505Z,1.70
2022-10-05T10:31:45.591Z,1.73
2022-10-05T10:34:55.894Z,1.37
2022-10-05T10:38:08.068Z,1.50
2022-10-05T10:41:17.423Z,1.40
2022-10-05T10:44:02.580Z,1.60
2022-10-05T10:47:04.203Z,1.37
2022-10-05T10:50:24.355Z,1.40
2022-10-05T10:53:28.250Z,1.60
2022-10-05T10:56:41.118Z,1.50
2022-10-05T10:59:44.527Z,1.50
2022-10-05T11:03:02.097Z,1.67
2022-10-05T11:06:12.257Z,1.43
2022-10-05T11:09:00.182Z,1.57
2022-10-05T11:12:04.535Z,1.37
2022-10-05T11:15:31.914Z,1.43
2022-10-05T11:18:30.439Z,1.50
2022-10-05T11:21:57.846Z,1.63
2022-10-05T11:25:06.446Z,1.33
2022-10-05T11:28:17.625Z,1.30
2022-10-05T11:31:11.923Z,1.53
2022-10-05T11:34:25.790Z,1.30
2022-10-05T11:37:35.013Z,1.60
2022-10-05T11:40:36.293Z,1.60
2022-10-05T11:43:49.994Z,1.10
2022-10-05T11:46:49.317Z,1.30
2022-10-05T11:49:56.099Z,1.87
2022-10-05T11:53:02.891Z,1.60
2022-10-05T11:56:07.378Z,1.60
2022-10-05T11:58:58.403Z,1.37
2022-10-05T12:02:02.140Z,1.40
2022-10-05T12:05:32.358Z,1.40
2022-10-05T12:08:48.270Z,1.50
2022-10-05T12:11:57.875Z,1.60
2022-10-05T12:14:52.004Z,1.30
2022-10-05T12:17:53.678Z,1.77
2022-10-05T12:20:41.626Z,1.70
2022-10-05T12:23:37.106Z,1.27
2022-10-05T12:26:36.591Z,1.40
2022-10-05T12:29:44.036Z,1.57
2022-10-05T12:32:44.650Z,1.67
2022-10-05T12:35:48.926Z,1.30
2022-10-05T12:38:49.632Z,1.30
2022-10-05T12:42:03.047Z,1.43
2022-10-05T12:45:19.602Z,1.50
2022-10-05T12:48:28.982Z,1.47
2022-10-05T12:51:29.427Z,1.60
2022-10-05T12:54:17.512Z,1.60
2022-10-05T12:57:23.126Z,1.30
2022-10-05T13:00:11.147Z,1.47
2022-10-05T13:03:13.830Z,1.50
2022-10-05T13:06:12.702Z,1.40
2022-10-05T13:08:57.998Z,1.73
2022-10-05T13:11:50.145Z,1.60
2022-10-05T13:15:05.506Z,1.60
2022-10-05T13:17:50.545Z,1.77
2022-10-05T13:20:53.797Z,1.57
2022-10-05T13:23:38.887Z,1.23
2022-10-05T13:26:36.812Z,1.90
2022-10-05T13:29:27.783Z,2.00
2022-10-05T13:32:19.606Z,1.77
2022-10-05T13:35:52.809Z,1.50
2022-10-05T13:38:54.590Z,1.60
2022-10-05T13:41:56.545Z,1.30
2022-10-05T13:44:55.755Z,1.40
2022-10-05T13:47:43.683Z,1.63
2022-10-05T13:50:59.257Z,1.40
2022-10-05T13:53:47.216Z,1.47
2022-10-05T13:56:37.644Z,1.60
2022-10-05T14:00:00.778Z,1.53
2022-10-05T14:02:50.820Z,1.80
2022-10-05T14:05:38.119Z,2.10
2022-10-05T14:08:32.394Z,2.27
2022-10-05T14:11:23.522Z,1.93
2022-10-05T14:14:44.047Z,1.60
2022-10-05T14:17:33.121Z,2.00
2022-10-05T14:20:20.536Z,1.93
2022-10-05T14:23:23.834Z,2.00
2022-10-05T14:26:25.684Z,1.93
2022-10-05T14:29:19.498Z,2.13
2022-10-05T14:32:23.259Z,1.67
2022-10-05T14:35:14.694Z,1.53
2022-10-05T14:38:17.571Z,1.77
2022-10-05T14:41:19.124Z,1.50
2022-10-05T14:44:28.263Z,2.03
2022-10-05T14:47:22.785Z,1.73
2022-10-05T14:50:17.668Z,1.87
2022-10-05T14:53:02.833Z,2.30
2022-10-05T14:55:56.712Z,2.07
2022-10-05T14:58:51.937Z,1.73
2022-10-05T15:01:53.802Z,1.53
2022-10-05T15:04:44.114Z,1.43
2022-10-05T15:07:38.832Z,1.87
2022-10-05T15:10:55.838Z,1.70
2022-10-05T15:13:43.967Z,1.50
2022-10-05T15:16:38.960Z,1.60
2022-10-05T15:19:42.008Z,1.27
2022-10-05T15:22:59.349Z,1.60
2022-10-05T15:25:55.186Z,1.60
2022-10-05T15:28:51.534Z,2.20
2022-10-05T15:31:45.221Z,1.50
2022-10-05T15:34:48.974Z,1.30
2022-10-05T15:37:42.870Z,1.87
2022-10-05T15:40:39.674Z,1.50
2022-10-05T15:43:26.425Z,1.53
2022-10-05T15:46:24.009Z,1.60
2022-10-05T15:49:29.061Z,1.77
2022-10-05T15:52:23.222Z,1.57
2022-10-05T15:55:26.773Z,1.60
2022-10-05T15:58:18.013Z,1.70
2022-10-05T16:01:30.762Z,1.70
2022-10-05T16:04:44.106Z,1.57
2022-10-05T16:07:57.987Z,1.87
2022-10-05T16:10:44.998Z,1.60
2022-10-05T16:13:44.183Z,1.80
2022-10-05T16:16:58.427Z,1.70
2022-10-05T16:19:52.969Z,1.33
2022-10-05T16:23:02.998Z,1.60
2022-10-05T16:26:08.957Z,1.47
2022-10-05T16:29:05.570Z,1.70
2022-10-05T16:32:06.964Z,1.60
2022-10-05T16:35:20.814Z,1.73
2022-10-05T16:38:24.815Z,1.83
2022-10-05T16:41:09.904Z,1.37
2022-10-05T16:44:14.673Z,1.50
2022-10-05T16:47:08.599Z,2.00
2022-10-05T16:50:04.712Z,1.50
2022-10-05T16:52:59.932Z,1.53
2022-10-05T16:56:00.596Z,1.67
2022-10-05T16:59:11.906Z,1.47
2022-10-05T17:02:15.663Z,2.20
2022-10-05T17:05:24.021Z,1.40
2022-10-05T17:08:15.237Z,1.53
2022-10-05T17:11:16.831Z,1.47
2022-10-05T17:14:31.801Z,1.73
2022-10-05T17:17:48.926Z,1.70
2022-10-05T17:20:49.968Z,1.57
2022-10-05T17:24:00.223Z,1.70
2022-10-05T17:26:45.373Z,1.47
2022-10-05T17:29:47.518Z,1.80
2022-10-05T17:32:40.002Z,1.70
2022-10-05T17:35:55.035Z,1.87
2022-10-05T17:38:52.626Z,1.77
2022-10-05T17:41:38.734Z,1.50
2022-10-05T17:44:24.902Z,1.83
2022-10-05T17:47:11.266Z,1.70
2022-10-05T17:50:17.951Z,1.67
2022-10-05T17:53:55.910Z,1.67
2022-10-05T17:56:47.463Z,1.80
2022-10-05T17:59:55.597Z,1.87
2022-10-05T18:02:42.845Z,2.03
2022-10-05T18:05:29.269Z,1.90
2022-10-05T18:08:16.428Z,1.70
2022-10-05T18:11:20.189Z,1.80
2022-10-05T18:14:24.835Z,1.70
2022-10-05T18:17:13.666Z,1.90
2022-10-05T18:20:23.755Z,1.43
2022-10-05T18:23:09.542Z,1.80
2022-10-05T18:26:05.122Z,1.57
2022-10-05T18:29:16.034Z,1.97
2022-10-05T18:32:23.681Z,1.90
2022-10-05T18:35:14.938Z,1.60
2022-10-05T18:38:45.362Z,1.80
2022-10-05T18:41:48.942Z,1.73
2022-10-05T18:44:40.355Z,1.70
2022-10-05T18:47:40.213Z,1.97
2022-10-05T18:50:55.275Z,1.57
2022-10-05T18:54:08.887Z,2.03
2022-10-05T18:56:54.097Z,1.80
2022-10-05T19:00:01.913Z,2.03
2022-10-05T19:03:15.633Z,1.40
2022-10-05T19:06:28.443Z,1.57
2022-10-05T19:09:48.632Z,1.50
2022-10-05T19:12:52.090Z,1.60
2022-10-05T19:16:10.519Z,1.97
2022-10-05T19:19:34.589Z,1.90
2022-10-05T19:22:26.582Z,1.87
2022-10-05T19:25:25.599Z,1.67
2022-10-05T19:28:18.119Z,1.50
2022-10-05T19:31:12.387Z,1.60
2022-10-05T19:34:06.283Z,1.90
2022-10-05T19:37:04.245Z,1.83
2022-10-05T19:39:58.079Z,2.10
2022-10-05T19:43:01.717Z,1.77
2022-10-05T19:46:00.348Z,1.90
2022-10-05T19:48:52.240Z,1.67
2022-10-05T19:51:50.078Z,1.63
2022-10-05T19:54:35.193Z,1.90
2022-10-05T19:57:20.817Z,1.60
2022-10-05T20:00:06.840Z,1.50
2022-10-05T20:03:08.975Z,1.80
2022-10-05T20:06:02.215Z,2.00
2022-10-05T20:08:50.973Z,1.87
2022-10-05T20:11:49.489Z,1.73
2022-10-05T20:14:58.543Z,1.60
2022-10-05T20:18:03.009Z,1.70
2022-10-05T20:20:49.383Z,1.70
2022-10-05T20:23:35.894Z,1.80
2022-10-05T20:27:16.421Z,1.70
2022-10-05T20:30:02.342Z,1.50
2022-10-05T20:32:49.361Z,2.00
2022-10-05T20:35:34.216Z,2.23
2022-10-05T20:38:19.692Z,2.23
2022-10-05T20:41:05.009Z,2.23
2022-10-05T20:43:50.150Z,2.67
2022-10-05T20:46:35.240Z,2.70
2022-10-05T20:49:22.780Z,3.30
2022-10-05T20:52:10.081Z,2.53
2022-10-05T20:54:58.762Z,2.47
2022-10-05T20:57:45.964Z,2.30
2022-10-05T21:00:51.404Z,2.50
2022-10-05T21:03:36.430Z,2.20
2022-10-05T21:06:22.210Z,2.00
2022-10-05T21:09:11.206Z,2.23
2022-10-05T21:11:56.412Z,2.13
2022-10-05T21:14:41.228Z,2.00
2022-10-05T21:17:26.316Z,1.80
2022-10-05T21:20:12.889Z,1.80
2022-10-05T21:22:57.979Z,1.93
2022-10-05T21:25:42.935Z,1.80
2022-10-05T21:28:28.482Z,1.87
2022-10-05T21:31:13.722Z,1.90
2022-10-05T21:33:58.481Z,1.93
2022-10-05T21:36:43.439Z,1.87
2022-10-05T21:39:28.471Z,1.53
2022-10-05T21:42:13.443Z,2.17
2022-10-05T21:44:58.709Z,1.97
2022-10-05T21:47:44.014Z,2.57
2022-10-05T21:50:29.469Z,2.50
2022-10-05T21:53:16.957Z,2.00
2022-10-05T21:56:04.254Z,2.03
2022-10-05T21:58:50.488Z,1.93
2022-10-05T22:01:38.395Z,2.00
2022-10-05T22:04:23.177Z,1.80
2022-10-05T22:07:19.453Z,2.23
2022-10-05T22:10:05.767Z,2.10
2022-10-05T22:12:51.231Z,2.10
2022-10-05T22:15:36.070Z,2.10
2022-10-05T22:18:21.850Z,2.00
2022-10-05T22:21:08.290Z,2.13
2022-10-05T22:23:53.500Z,1.77
2022-10-05T22:26:41.382Z,2.50
2022-10-05T22:29:26.624Z,2.20
2022-10-05T22:32:11.813Z,2.17
2022-10-05T22:34:57.182Z,1.97
2022-10-05T22:37:42.050Z,2.20
2022-10-05T22:40:26.923Z,2.10
2022-10-05T22:43:12.373Z,2.20
2022-10-05T22:45:57.695Z,2.20
2022-10-05T22:48:43.095Z,2.00
2022-10-05T22:51:28.499Z,2.03
2022-10-05T22:54:13.520Z,1.80
2022-10-05T22:56:58.437Z,1.90
2022-10-05T22:59:43.534Z,2.00
2022-10-05T23:02:28.636Z,2.10
2022-10-05T23:05:14.525Z,1.83
2022-10-05T23:08:02.157Z,1.70
2022-10-05T23:10:47.223Z,1.33
2022-10-05T23:13:33.276Z,2.13
2022-10-05T23:16:20.827Z,1.70
2022-10-05T23:19:06.392Z,1.87
2022-10-05T23:21:51.745Z,1.80
2022-10-05T23:24:36.973Z,1.90
2022-10-05T23:27:22.175Z,2.10
2022-10-05T23:30:09.623Z,1.80
2022-10-05T23:32:54.439Z,1.90
2022-10-05T23:35:39.418Z,2.03
2022-10-05T23:38:24.256Z,1.70
2022-10-05T23:41:10.814Z,2.40
2022-10-05T23:43:56.089Z,1.63
2022-10-05T23:46:40.869Z,1.67
2022-10-05T23:49:26.028Z,1.50
2022-10-05T23:52:10.806Z,1.90
2022-10-05T23:54:55.847Z,1.83
2022-10-05T23:57:41.089Z,1.60
